createdAt,value
2023-06-17T00:00:33.352Z,1018.22
2023-06-17T00:01:05.257Z,1018.22
2023-06-17T00:01:36.318Z,1018.22
2023-06-17T00:02:08.034Z,1018.01
2023-06-17T00:02:36.491Z,1018.01
2023-06-17T00:02:56.271Z,1018.01
2023-06-17T00:03:28.096Z,1018.01
2023-06-17T00:04:00.152Z,1018.12
2023-06-17T00:04:31.850Z,1018.12
2023-06-17T00:05:05.873Z,1018.01
2023-06-17T00:05:36.553Z,1018.01
2023-06-17T00:06:08.062Z,1018.01
2023-06-17T00:06:36.547Z,1017.91
2023-06-17T00:06:56.997Z,1017.91
2023-06-17T00:07:28.091Z,1017.91
2023-06-17T00:08:00.166Z,1018.12
2023-06-17T00:08:31.872Z,1018.12
2023-06-17T00:09:04.087Z,1018.22
2023-06-17T00:09:36.417Z,1018.22
2023-06-17T00:10:08.999Z,1018.12
2023-06-17T00:10:36.167Z,1017.91
2023-06-17T00:10:56.584Z,1017.91
2023-06-17T00:11:28.081Z,1017.91
2023-06-17T00:12:00.003Z,1017.91
2023-06-17T00:12:31.922Z,1017.91
2023-06-17T00:13:04.108Z,1017.81
2023-06-17T00:13:39.271Z,1017.81
2023-06-17T00:14:08.040Z,1018.01
2023-06-17T00:14:36.116Z,1018.01
2023-06-17T00:14:56.321Z,1018.01
2023-06-17T00:15:29.635Z,1018.01
2023-06-17T00:16:00.109Z,1017.91
2023-06-17T00:16:32.303Z,1017.91
2023-06-17T00:17:04.123Z,1017.81
2023-06-17T00:17:38.472Z,1017.81
2023-06-17T00:18:08.170Z,1017.81
2023-06-17T00:18:36.259Z,1017.91
2023-06-17T00:18:56.204Z,1017.91
2023-06-17T00:19:28.272Z,1017.91
2023-06-17T00:20:00.225Z,1017.91
2023-06-17T00:20:32.674Z,1017.91
2023-06-17T00:21:04.132Z,1018.12
2023-06-17T00:21:36.028Z,1018.12
2023-06-17T00:22:07.924Z,1018.12
2023-06-17T00:22:36.094Z,1018.01
2023-06-17T00:22:56.238Z,1018.01
2023-06-17T00:23:27.969Z,1018.01
2023-06-17T00:24:00.014Z,1017.91
2023-06-17T00:24:32.027Z,1017.91
2023-06-17T00:25:05.655Z,1017.81
2023-06-17T00:25:36.209Z,1017.81
2023-06-17T00:26:08.205Z,1018.12
2023-06-17T00:26:36.105Z,1018.12
2023-06-17T00:26:56.212Z,1018.12
2023-06-17T00:27:28.008Z,1018.12
2023-06-17T00:27:59.998Z,1017.91
2023-06-17T00:28:31.841Z,1017.91
2023-06-17T00:29:03.874Z,1017.91
2023-06-17T00:29:36.050Z,1017.91
2023-06-17T00:30:09.753Z,1018.01
2023-06-17T00:30:36.289Z,1018.12
2023-06-17T00:30:56.906Z,1018.12
2023-06-17T00:31:27.959Z,1018.12
2023-06-17T00:32:00.338Z,1018.12
2023-06-17T00:32:31.887Z,1018.12
2023-06-17T00:33:04.656Z,1018.12
2023-06-17T00:33:36.085Z,1018.12
2023-06-17T00:34:08.435Z,1018.01
2023-06-17T00:34:36.169Z,1017.91
2023-06-17T00:34:56.132Z,1017.91
2023-06-17T00:35:28.446Z,1017.91
2023-06-17T00:36:00.116Z,1018.22
2023-06-17T00:36:32.356Z,1018.22
2023-06-17T00:37:03.812Z,1017.81
2023-06-17T00:37:36.348Z,1017.81
2023-06-17T00:38:08.839Z,1017.81
2023-06-17T00:38:36.224Z,1017.81
2023-06-17T00:38:56.277Z,1017.81
2023-06-17T00:39:27.976Z,1017.81
2023-06-17T00:40:03.243Z,1017.91
2023-06-17T00:40:31.874Z,1017.91
2023-06-17T00:41:03.769Z,1017.91
2023-06-17T00:41:36.239Z,1017.91
2023-06-17T00:42:08.175Z,1017.81
2023-06-17T00:42:36.828Z,1018.01
2023-06-17T00:42:56.897Z,1018.01
2023-06-17T00:43:27.912Z,1018.01
2023-06-17T00:44:00.230Z,1017.91
2023-06-17T00:44:31.916Z,1017.91
2023-06-17T00:45:06.628Z,1017.81
2023-06-17T00:45:36.427Z,1017.81
2023-06-17T00:46:08.140Z,1018.01
2023-06-17T00:46:36.391Z,1017.81
2023-06-17T00:46:56.504Z,1017.81
2023-06-17T00:47:28.173Z,1017.81
2023-06-17T00:48:01.014Z,1017.81
2023-06-17T00:48:32.203Z,1017.81
2023-06-17T00:49:04.031Z,1018.22
2023-06-17T00:49:36.281Z,1018.22
2023-06-17T00:50:08.714Z,1018.12
2023-06-17T00:50:36.201Z,1018.01
2023-06-17T00:50:56.622Z,1018.01
2023-06-17T00:51:27.930Z,1018.01
2023-06-17T00:52:17.369Z,1018.01
2023-06-17T00:52:41.024Z,1018.01
2023-06-17T00:53:04.080Z,1018.01
2023-06-17T00:53:35.950Z,1018.01
2023-06-17T00:54:08.059Z,1018.22
2023-06-17T00:54:36.154Z,1018.12
2023-06-17T00:54:56.504Z,1018.12
2023-06-17T00:55:28.456Z,1018.12
2023-06-17T00:56:00.314Z,1018.01
2023-06-17T00:56:31.854Z,1018.01
2023-06-17T00:57:04.360Z,1018.12
2023-06-17T00:57:36.205Z,1018.12
2023-06-17T00:58:08.210Z,1018.22
2023-06-17T00:58:36.283Z,1017.71
2023-06-17T00:58:56.587Z,1017.71
2023-06-17T00:59:28.182Z,1017.71
2023-06-17T01:00:00.179Z,1018.01
2023-06-17T01:00:33.355Z,1018.01
2023-06-17T01:01:05.168Z,1017.81
2023-06-17T01:01:36.847Z,1017.81
2023-06-17T01:02:08.577Z,1017.91
2023-06-17T01:02:36.419Z,1018.01
2023-06-17T01:02:56.223Z,1018.01
2023-06-17T01:03:28.196Z,1018.01
2023-06-17T01:04:00.223Z,1017.71
2023-06-17T01:04:31.867Z,1017.71
2023-06-17T01:05:05.780Z,1018.12
2023-06-17T01:05:36.580Z,1018.12
2023-06-17T01:06:08.298Z,1017.91
2023-06-17T01:06:36.098Z,1017.71
2023-06-17T01:06:56.417Z,1017.71
2023-06-17T01:07:28.062Z,1017.71
2023-06-17T01:08:00.172Z,1018.12
2023-06-17T01:08:31.888Z,1018.12
2023-06-17T01:09:04.000Z,1018.12
2023-06-17T01:09:36.211Z,1018.12
2023-06-17T01:10:08.757Z,1018.01
2023-06-17T01:10:36.602Z,1017.91
2023-06-17T01:10:59.091Z,1017.91
2023-06-17T01:11:27.943Z,1017.91
2023-06-17T01:12:00.060Z,1017.71
2023-06-17T01:12:31.809Z,1017.71
2023-06-17T01:13:03.920Z,1017.91
2023-06-17T01:13:36.316Z,1017.91
2023-06-17T01:14:07.998Z,1018.01
2023-06-17T01:14:36.749Z,1017.91
2023-06-17T01:14:56.470Z,1017.91
2023-06-17T01:15:29.152Z,1017.91
2023-06-17T01:16:00.334Z,1018.01
2023-06-17T01:16:31.936Z,1018.01
2023-06-17T01:17:04.018Z,1018.01
2023-06-17T01:17:36.361Z,1018.01
2023-06-17T01:18:08.122Z,1017.91
2023-06-17T01:18:36.214Z,1017.91
2023-06-17T01:18:56.645Z,1017.91
2023-06-17T01:19:27.973Z,1017.91
2023-06-17T01:19:59.975Z,1017.91
2023-06-17T01:20:32.406Z,1017.91
2023-06-17T01:21:03.919Z,1017.81
2023-06-17T01:21:36.153Z,1017.81
2023-06-17T01:22:08.061Z,1017.91
2023-06-17T01:22:36.260Z,1017.81
2023-06-17T01:22:56.404Z,1017.81
2023-06-17T01:23:28.116Z,1017.81
2023-06-17T01:24:00.173Z,1018.01
2023-06-17T01:24:32.050Z,1018.01
2023-06-17T01:25:05.820Z,1017.71
2023-06-17T01:25:36.409Z,1017.71
2023-06-17T01:26:08.194Z,1017.91
2023-06-17T01:26:36.401Z,1017.91
2023-06-17T01:26:56.466Z,1017.91
2023-06-17T01:27:28.110Z,1017.91
2023-06-17T01:28:00.162Z,1017.81
2023-06-17T01:28:31.917Z,1017.81
2023-06-17T01:29:03.829Z,1017.81
2023-06-17T01:29:36.462Z,1017.81
2023-06-17T01:30:11.202Z,1017.81
2023-06-17T01:30:36.312Z,1017.81
2023-06-17T01:30:56.869Z,1017.81
2023-06-17T01:31:28.165Z,1017.81
2023-06-17T01:32:00.189Z,1017.71
2023-06-17T01:32:31.941Z,1017.71
2023-06-17T01:33:04.092Z,1018.22
2023-06-17T01:33:36.188Z,1018.22
2023-06-17T01:34:08.168Z,1017.71
2023-06-17T01:34:36.375Z,1017.81
2023-06-17T01:34:56.169Z,1017.81
2023-06-17T01:35:28.949Z,1017.81
2023-06-17T01:36:00.162Z,1017.81
2023-06-17T01:36:32.041Z,1017.81
2023-06-17T01:37:03.946Z,1017.81
2023-06-17T01:37:35.977Z,1017.81
2023-06-17T01:38:09.005Z,1017.71
2023-06-17T01:38:36.348Z,1017.71
2023-06-17T01:38:56.410Z,1017.71
2023-06-17T01:39:28.010Z,1017.71
2023-06-17T01:40:00.200Z,1017.81
2023-06-17T01:40:37.862Z,1017.81
2023-06-17T01:41:04.004Z,1017.71
2023-06-17T01:41:36.089Z,1017.71
2023-06-17T01:42:08.035Z,1017.81
2023-06-17T01:42:36.218Z,1017.81
2023-06-17T01:42:56.315Z,1017.81
2023-06-17T01:43:28.118Z,1017.81
2023-06-17T01:44:00.080Z,1017.81
2023-06-17T01:44:32.328Z,1017.81
2023-06-17T01:45:06.448Z,1017.91
2023-06-17T01:45:36.258Z,1017.91
2023-06-17T01:46:08.114Z,1018.01
2023-06-17T01:46:36.494Z,1017.71
2023-06-17T01:46:56.315Z,1017.71
2023-06-17T01:47:28.003Z,1017.71
2023-06-17T01:48:00.321Z,1017.81
2023-06-17T01:48:31.843Z,1017.81
2023-06-17T01:49:03.916Z,1017.81
2023-06-17T01:49:36.285Z,1017.81
2023-06-17T01:50:08.847Z,1017.61
2023-06-17T01:50:36.593Z,1017.81
2023-06-17T01:50:57.157Z,1017.81
2023-06-17T01:51:28.160Z,1017.81
2023-06-17T01:52:00.105Z,1017.71
2023-06-17T01:52:31.827Z,1017.71
2023-06-17T01:53:04.007Z,1017.71
2023-06-17T01:53:36.716Z,1017.71
2023-06-17T01:54:08.197Z,1017.81
2023-06-17T01:54:36.082Z,1017.71
2023-06-17T01:54:56.164Z,1017.71
2023-06-17T01:55:28.557Z,1017.71
2023-06-17T01:56:00.032Z,1017.61
2023-06-17T01:56:31.766Z,1017.61
2023-06-17T01:57:03.912Z,1017.71
2023-06-17T01:57:36.169Z,1017.71
2023-06-17T01:58:08.096Z,1017.61
2023-06-17T01:58:36.065Z,1017.71
2023-06-17T01:58:56.136Z,1017.71
2023-06-17T01:59:28.084Z,1017.71
2023-06-17T02:00:00.048Z,1017.81
2023-06-17T02:00:33.001Z,1017.81
2023-06-17T02:01:05.158Z,1017.61
2023-06-17T02:01:36.728Z,1017.61
2023-06-17T02:02:08.046Z,1017.81
2023-06-17T02:02:36.183Z,1017.71
2023-06-17T02:02:56.246Z,1017.71
2023-06-17T02:03:28.249Z,1017.71
2023-06-17T02:04:00.382Z,1017.61
2023-06-17T02:04:31.791Z,1017.61
2023-06-17T02:05:05.619Z,1017.81
2023-06-17T02:05:36.099Z,1017.81
2023-06-17T02:06:08.021Z,1017.81
2023-06-17T02:06:36.319Z,1017.61
2023-06-17T02:06:56.183Z,1017.61
2023-06-17T02:07:28.020Z,1017.61
2023-06-17T02:07:59.949Z,1017.54
2023-06-17T02:08:31.835Z,1017.54
2023-06-17T02:09:03.940Z,1017.81
2023-06-17T02:09:36.429Z,1017.81
2023-06-17T02:10:08.662Z,1017.81
2023-06-17T02:10:36.202Z,1017.81
2023-06-17T02:10:56.713Z,1017.81
2023-06-17T02:11:28.086Z,1017.81
2023-06-17T02:12:00.036Z,1017.81
2023-06-17T02:12:31.764Z,1017.81
2023-06-17T02:13:03.896Z,1017.81
2023-06-17T02:13:36.437Z,1017.81
2023-06-17T02:14:08.030Z,1017.61
2023-06-17T02:14:36.242Z,1017.71
2023-06-17T02:14:56.168Z,1017.71
2023-06-17T02:15:29.235Z,1017.71
2023-06-17T02:16:00.173Z,1017.91
2023-06-17T02:16:32.016Z,1017.91
2023-06-17T02:17:04.033Z,1017.54
2023-06-17T02:17:36.770Z,1017.54
2023-06-17T02:18:08.036Z,1017.81
2023-06-17T02:18:36.278Z,1017.71
2023-06-17T02:18:56.068Z,1017.71
2023-06-17T02:19:27.924Z,1017.71
2023-06-17T02:20:00.101Z,1017.71
2023-06-17T02:20:32.335Z,1017.71
2023-06-17T02:21:03.951Z,1017.71
2023-06-17T02:21:36.039Z,1017.71
2023-06-17T02:22:08.494Z,1017.71
2023-06-17T02:22:36.198Z,1017.61
2023-06-17T02:22:56.168Z,1017.61
2023-06-17T02:23:28.034Z,1017.61
2023-06-17T02:24:00.092Z,1017.71
2023-06-17T02:24:31.962Z,1017.71
2023-06-17T02:25:05.688Z,1017.71
2023-06-17T02:25:36.713Z,1017.71
2023-06-17T02:26:08.095Z,1017.71
2023-06-17T02:26:36.228Z,1017.61
2023-06-17T02:26:56.173Z,1017.61
2023-06-17T02:27:28.029Z,1017.61
2023-06-17T02:28:00.046Z,1017.71
2023-06-17T02:28:31.764Z,1017.71
2023-06-17T02:29:03.904Z,1017.61
2023-06-17T02:29:36.218Z,1017.61
2023-06-17T02:30:09.273Z,1017.44
2023-06-17T02:30:36.112Z,1017.71
2023-06-17T02:30:57.353Z,1017.71
2023-06-17T02:31:28.137Z,1017.71
2023-06-17T02:32:00.078Z,1017.54
2023-06-17T02:32:32.096Z,1017.54
2023-06-17T02:33:03.892Z,1017.61
2023-06-17T02:33:36.183Z,1017.61
2023-06-17T02:34:08.093Z,1017.71
2023-06-17T02:34:36.090Z,1017.71
2023-06-17T02:34:56.138Z,1017.71
2023-06-17T02:35:28.558Z,1017.71
2023-06-17T02:36:00.573Z,1017.61
2023-06-17T02:36:32.014Z,1017.61
2023-06-17T02:37:03.934Z,1017.61
2023-06-17T02:37:36.302Z,1017.61
2023-06-17T02:38:07.940Z,1017.61
2023-06-17T02:38:36.104Z,1017.71
2023-06-17T02:38:56.137Z,1017.71
2023-06-17T02:39:27.943Z,1017.71
2023-06-17T02:40:00.070Z,1017.61
2023-06-17T02:40:32.239Z,1017.61
2023-06-17T02:41:05.034Z,1017.54
2023-06-17T02:41:36.424Z,1017.54
2023-06-17T02:42:08.100Z,1017.54
2023-06-17T02:42:36.252Z,1017.61
2023-06-17T02:42:56.415Z,1017.61
2023-06-17T02:43:28.180Z,1017.61
2023-06-17T02:44:00.268Z,1017.61
2023-06-17T02:44:31.768Z,1017.61
2023-06-17T02:45:06.587Z,1017.61
2023-06-17T02:45:36.498Z,1017.61
2023-06-17T02:46:07.986Z,1017.54
2023-06-17T02:46:36.340Z,1017.54
2023-06-17T02:46:56.429Z,1017.54
2023-06-17T02:47:28.201Z,1017.54
2023-06-17T02:48:00.311Z,1017.54
2023-06-17T02:48:32.004Z,1017.54
2023-06-17T02:49:04.046Z,1017.54
2023-06-17T02:49:36.330Z,1017.54
2023-06-17T02:50:09.158Z,1017.71
2023-06-17T02:50:36.087Z,1017.71
2023-06-17T02:50:56.695Z,1017.71
2023-06-17T02:51:28.038Z,1017.71
2023-06-17T02:52:00.140Z,1017.71
2023-06-17T02:52:32.004Z,1017.71
2023-06-17T02:53:04.339Z,1017.61
2023-06-17T02:53:36.381Z,1017.61
2023-06-17T02:54:07.918Z,1017.61
2023-06-17T02:54:36.501Z,1017.44
2023-06-17T02:54:56.448Z,1017.44
2023-06-17T02:55:28.774Z,1017.44
2023-06-17T02:56:00.331Z,1017.44
2023-06-17T02:56:32.024Z,1017.44
2023-06-17T02:57:04.154Z,1017.54
2023-06-17T02:57:36.379Z,1017.54
2023-06-17T02:58:08.255Z,1017.44
2023-06-17T02:58:36.349Z,1017.71
2023-06-17T02:58:56.358Z,1017.71
2023-06-17T02:59:28.433Z,1017.71
2023-06-17T03:00:01.506Z,1017.54
2023-06-17T03:00:32.279Z,1017.54
2023-06-17T03:01:05.410Z,1017.54
2023-06-17T03:01:36.457Z,1017.54
2023-06-17T03:02:08.315Z,1017.71
2023-06-17T03:02:36.502Z,1017.54
2023-06-17T03:02:56.620Z,1017.54
2023-06-17T03:03:28.394Z,1017.54
2023-06-17T03:04:00.278Z,1017.54
2023-06-17T03:04:32.148Z,1017.54
2023-06-17T03:05:05.934Z,1017.61
2023-06-17T03:05:36.417Z,1017.61
2023-06-17T03:06:08.286Z,1017.61
2023-06-17T03:06:36.413Z,1017.61
2023-06-17T03:06:56.436Z,1017.61
2023-06-17T03:07:28.168Z,1017.61
2023-06-17T03:08:00.218Z,1017.61
2023-06-17T03:08:31.979Z,1017.61
2023-06-17T03:09:04.151Z,1017.44
2023-06-17T03:09:36.378Z,1017.44
2023-06-17T03:10:08.952Z,1017.34
2023-06-17T03:10:36.369Z,1017.54
2023-06-17T03:10:56.869Z,1017.54
2023-06-17T03:11:28.409Z,1017.54
2023-06-17T03:12:00.264Z,1017.61
2023-06-17T03:12:32.086Z,1017.61
2023-06-17T03:13:04.089Z,1017.44
2023-06-17T03:13:36.366Z,1017.44
2023-06-17T03:14:08.477Z,1017.61
2023-06-17T03:14:36.772Z,1017.54
2023-06-17T03:14:56.698Z,1017.54
2023-06-17T03:15:29.354Z,1017.54
2023-06-17T03:16:00.546Z,1017.71
2023-06-17T03:16:32.149Z,1017.71
2023-06-17T03:17:04.285Z,1017.54
2023-06-17T03:17:36.453Z,1017.54
2023-06-17T03:18:08.232Z,1017.54
2023-06-17T03:18:36.424Z,1017.61
2023-06-17T03:18:56.324Z,1017.61
2023-06-17T03:19:28.258Z,1017.61
2023-06-17T03:20:00.961Z,1017.61
2023-06-17T03:20:32.056Z,1017.61
2023-06-17T03:21:04.139Z,1017.54
2023-06-17T03:21:37.659Z,1017.54
2023-06-17T03:22:08.468Z,1017.61
2023-06-17T03:22:36.571Z,1017.61
2023-06-17T03:22:56.336Z,1017.61
2023-06-17T03:23:28.482Z,1017.61
2023-06-17T03:24:00.361Z,1017.44
2023-06-17T03:24:32.576Z,1017.44
2023-06-17T03:25:06.101Z,1017.44
2023-06-17T03:25:36.532Z,1017.44
2023-06-17T03:26:08.331Z,1017.54
2023-06-17T03:26:36.659Z,1017.61
2023-06-17T03:26:56.396Z,1017.61
2023-06-17T03:27:28.625Z,1017.61
2023-06-17T03:28:00.210Z,1017.61
2023-06-17T03:28:32.062Z,1017.61
2023-06-17T03:29:04.099Z,1017.61
2023-06-17T03:29:36.450Z,1017.61
2023-06-17T03:30:09.448Z,1017.54
2023-06-17T03:30:36.522Z,1017.54
2023-06-17T03:30:56.932Z,1017.54
2023-06-17T03:31:28.257Z,1017.54
2023-06-17T03:32:00.351Z,1017.54
2023-06-17T03:32:32.652Z,1017.54
2023-06-17T03:33:04.236Z,1017.61
2023-06-17T03:33:36.437Z,1017.61
2023-06-17T03:34:08.418Z,1017.54
2023-06-17T03:34:36.686Z,1017.54
2023-06-17T03:34:56.760Z,1017.54
2023-06-17T03:35:28.832Z,1017.54
2023-06-17T03:36:00.193Z,1017.61
2023-06-17T03:36:32.392Z,1017.61
2023-06-17T03:37:04.144Z,1017.54
2023-06-17T03:37:36.774Z,1017.54
2023-06-17T03:38:08.334Z,1017.81
2023-06-17T03:38:36.515Z,1017.61
2023-06-17T03:38:56.576Z,1017.61
2023-06-17T03:39:28.296Z,1017.61
2023-06-17T03:40:00.904Z,1017.54
2023-06-17T03:40:31.972Z,1017.54
2023-06-17T03:41:04.273Z,1017.61
2023-06-17T03:41:36.884Z,1017.61
2023-06-17T03:42:09.498Z,1017.61
2023-06-17T03:42:37.577Z,1017.54
2023-06-17T03:42:56.443Z,1017.54
2023-06-17T03:43:28.149Z,1017.54
2023-06-17T03:44:00.204Z,1017.54
2023-06-17T03:44:32.050Z,1017.54
2023-06-17T03:45:06.729Z,1017.44
2023-06-17T03:45:36.506Z,1017.44
2023-06-17T03:46:08.335Z,1017.61
2023-06-17T03:46:36.517Z,1017.71
2023-06-17T03:46:56.609Z,1017.71
2023-06-17T03:47:28.259Z,1017.71
2023-06-17T03:48:00.332Z,1017.54
2023-06-17T03:48:32.029Z,1017.54
2023-06-17T03:49:04.135Z,1017.61
2023-06-17T03:49:36.390Z,1017.61
2023-06-17T03:50:08.876Z,1017.61
2023-06-17T03:50:36.578Z,1017.54
2023-06-17T03:50:56.967Z,1017.54
2023-06-17T03:51:28.104Z,1017.54
2023-06-17T03:52:00.347Z,1017.34
2023-06-17T03:52:32.061Z,1017.34
2023-06-17T03:53:04.114Z,1017.61
2023-06-17T03:53:36.427Z,1017.61
2023-06-17T03:54:08.333Z,1017.54
2023-06-17T03:54:36.444Z,1017.34
2023-06-17T03:54:56.408Z,1017.34
2023-06-17T03:55:28.804Z,1017.34
2023-06-17T03:56:00.287Z,1017.34
2023-06-17T03:56:32.052Z,1017.34
2023-06-17T03:57:04.332Z,1017.34
2023-06-17T03:57:36.842Z,1017.34
2023-06-17T03:58:08.224Z,1017.44
2023-06-17T03:58:36.474Z,1017.54
2023-06-17T03:58:56.441Z,1017.54
2023-06-17T03:59:28.257Z,1017.54
2023-06-17T04:00:01.559Z,1017.44
2023-06-17T04:00:32.035Z,1017.44
2023-06-17T04:01:05.397Z,1017.44
2023-06-17T04:01:36.454Z,1017.44
2023-06-17T04:02:08.250Z,1017.44
2023-06-17T04:02:36.546Z,1017.34
2023-06-17T04:02:56.590Z,1017.34
2023-06-17T04:03:28.299Z,1017.34
2023-06-17T04:04:00.456Z,1017.61
2023-06-17T04:04:31.996Z,1017.61
2023-06-17T04:05:05.785Z,1017.34
2023-06-17T04:05:36.532Z,1017.34
2023-06-17T04:06:08.726Z,1017.34
2023-06-17T04:06:36.478Z,1017.54
2023-06-17T04:06:56.305Z,1017.54
2023-06-17T04:07:28.150Z,1017.54
2023-06-17T04:08:00.279Z,1017.54
2023-06-17T04:08:31.948Z,1017.54
2023-06-17T04:09:04.517Z,1017.44
2023-06-17T04:09:36.432Z,1017.44
2023-06-17T04:10:08.872Z,1017.54
2023-06-17T04:10:36.496Z,1017.71
2023-06-17T04:10:56.820Z,1017.71
2023-06-17T04:11:28.139Z,1017.71
2023-06-17T04:12:00.180Z,1017.61
2023-06-17T04:12:31.924Z,1017.61
2023-06-17T04:13:04.178Z,1017.54
2023-06-17T04:13:36.323Z,1017.54
2023-06-17T04:14:08.324Z,1017.54
2023-06-17T04:14:36.444Z,1017.54
2023-06-17T04:14:56.446Z,1017.54
2023-06-17T04:15:29.480Z,1017.54
2023-06-17T04:16:00.331Z,1017.54
2023-06-17T04:16:32.787Z,1017.54
2023-06-17T04:17:04.206Z,1017.61
2023-06-17T04:17:36.480Z,1017.61
2023-06-17T04:18:08.263Z,1017.54
2023-06-17T04:18:36.487Z,1017.54
2023-06-17T04:18:56.888Z,1017.54
2023-06-17T04:19:28.325Z,1017.54
2023-06-17T04:20:00.130Z,1017.54
2023-06-17T04:20:32.673Z,1017.54
2023-06-17T04:21:04.204Z,1017.61
2023-06-17T04:21:36.758Z,1017.61
2023-06-17T04:22:08.206Z,1017.54
2023-06-17T04:22:36.450Z,1017.44
2023-06-17T04:22:56.846Z,1017.44
2023-06-17T04:23:28.298Z,1017.44
2023-06-17T04:24:00.244Z,1017.54
2023-06-17T04:24:32.329Z,1017.54
2023-06-17T04:25:05.772Z,1017.54
2023-06-17T04:25:36.500Z,1017.54
2023-06-17T04:26:08.274Z,1017.61
2023-06-17T04:26:36.483Z,1017.54
2023-06-17T04:26:57.081Z,1017.54
2023-06-17T04:27:28.194Z,1017.54
2023-06-17T04:28:00.723Z,1017.61
2023-06-17T04:28:32.094Z,1017.61
2023-06-17T04:29:04.117Z,1017.61
2023-06-17T04:29:36.491Z,1017.61
2023-06-17T04:30:09.879Z,1017.71
2023-06-17T04:30:36.597Z,1017.71
2023-06-17T04:30:57.227Z,1017.71
2023-06-17T04:31:28.306Z,1017.71
2023-06-17T04:32:00.353Z,1017.61
2023-06-17T04:32:32.234Z,1017.61
2023-06-17T04:33:04.617Z,1017.71
2023-06-17T04:33:36.866Z,1017.71
2023-06-17T04:34:08.303Z,1017.81
2023-06-17T04:34:36.500Z,1017.71
2023-06-17T04:34:56.657Z,1017.71
2023-06-17T04:35:28.829Z,1017.71
2023-06-17T04:36:00.321Z,1017.81
2023-06-17T04:36:32.036Z,1017.81
2023-06-17T04:37:04.416Z,1017.54
2023-06-17T04:37:36.579Z,1017.54
2023-06-17T04:38:08.205Z,1017.71
2023-06-17T04:38:36.462Z,1017.54
2023-06-17T04:38:56.485Z,1017.54
2023-06-17T04:39:28.159Z,1017.54
2023-06-17T04:40:00.901Z,1017.61
2023-06-17T04:40:31.936Z,1017.61
2023-06-17T04:41:04.037Z,1017.91
2023-06-17T04:41:36.736Z,1017.91
2023-06-17T04:42:08.870Z,1017.71
2023-06-17T04:42:36.456Z,1017.44
2023-06-17T04:42:56.449Z,1017.44
2023-06-17T04:43:28.259Z,1017.44
2023-06-17T04:44:00.229Z,1017.61
2023-06-17T04:44:32.303Z,1017.61
2023-06-17T04:45:06.473Z,1017.71
2023-06-17T04:45:36.547Z,1017.71
2023-06-17T04:46:08.361Z,1017.44
2023-06-17T04:46:36.547Z,1017.54
2023-06-17T04:46:56.447Z,1017.54
2023-06-17T04:47:28.233Z,1017.54
2023-06-17T04:48:00.292Z,1017.71
2023-06-17T04:48:32.274Z,1017.71
2023-06-17T04:49:04.348Z,1017.54
2023-06-17T04:49:36.822Z,1017.54
2023-06-17T04:50:09.172Z,1017.61
2023-06-17T04:50:36.682Z,1017.61
2023-06-17T04:50:57.134Z,1017.61
2023-06-17T04:51:28.380Z,1017.61
2023-06-17T04:52:00.452Z,1017.71
2023-06-17T04:52:32.194Z,1017.71
2023-06-17T04:53:04.257Z,1017.71
2023-06-17T04:53:36.598Z,1017.71
2023-06-17T04:54:08.540Z,1017.54
2023-06-17T04:54:36.938Z,1017.54
2023-06-17T04:54:56.787Z,1017.54
2023-06-17T04:55:28.922Z,1017.54
2023-06-17T04:56:00.282Z,1017.61
2023-06-17T04:56:32.220Z,1017.61
2023-06-17T04:57:04.338Z,1017.71
2023-06-17T04:57:36.710Z,1017.71
2023-06-17T04:58:08.932Z,1017.61
2023-06-17T04:58:36.936Z,1017.54
2023-06-17T04:58:56.477Z,1017.54
2023-06-17T04:59:28.257Z,1017.54
2023-06-17T05:00:01.786Z,1017.44
2023-06-17T05:00:32.099Z,1017.44
2023-06-17T05:01:05.292Z,1017.61
2023-06-17T05:01:36.506Z,1017.61
2023-06-17T05:02:08.540Z,1017.61
2023-06-17T05:02:36.824Z,1017.71
2023-06-17T05:02:57.238Z,1017.71
2023-06-17T05:03:28.502Z,1017.71
2023-06-17T05:04:00.578Z,1017.71
2023-06-17T05:04:32.067Z,1017.71
2023-06-17T05:05:06.471Z,1017.71
2023-06-17T05:05:36.515Z,1017.71
2023-06-17T05:06:08.687Z,1017.81
2023-06-17T05:06:36.647Z,1017.61
2023-06-17T05:06:56.708Z,1017.61
2023-06-17T05:07:28.338Z,1017.61
2023-06-17T05:08:00.298Z,1017.54
2023-06-17T05:08:32.692Z,1017.54
2023-06-17T05:09:04.517Z,1017.81
2023-06-17T05:09:36.836Z,1017.81
2023-06-17T05:10:09.356Z,1017.61
2023-06-17T05:10:36.680Z,1017.71
2023-06-17T05:10:57.300Z,1017.71
2023-06-17T05:11:28.558Z,1017.71
2023-06-17T05:12:00.577Z,1017.71
2023-06-17T05:12:32.424Z,1017.71
2023-06-17T05:13:04.444Z,1017.71
2023-06-17T05:13:36.631Z,1017.71
2023-06-17T05:14:08.471Z,1017.54
2023-06-17T05:14:36.615Z,1017.61
2023-06-17T05:14:56.648Z,1017.61
2023-06-17T05:15:29.791Z,1017.61
2023-06-17T05:16:00.169Z,1017.54
2023-06-17T05:16:32.326Z,1017.54
2023-06-17T05:17:04.415Z,1017.71
2023-06-17T05:17:44.830Z,1017.61
2023-06-17T05:18:08.724Z,1017.61
2023-06-17T05:18:36.636Z,1017.61
2023-06-17T05:18:56.798Z,1017.61
2023-06-17T05:19:28.765Z,1017.61
2023-06-17T05:20:00.252Z,1017.61
2023-06-17T05:20:33.032Z,1017.61
2023-06-17T05:21:04.304Z,1017.61
2023-06-17T05:21:36.824Z,1017.61
2023-06-17T05:22:08.422Z,1017.71
2023-06-17T05:22:36.549Z,1017.71
2023-06-17T05:22:56.600Z,1017.71
2023-06-17T05:23:28.213Z,1017.71
2023-06-17T05:24:02.032Z,1017.71
2023-06-17T05:24:32.953Z,1017.71
2023-06-17T05:25:06.391Z,1017.61
2023-06-17T05:25:36.873Z,1017.61
2023-06-17T05:26:08.602Z,1017.44
2023-06-17T05:26:37.201Z,1017.54
2023-06-17T05:26:56.777Z,1017.54
2023-06-17T05:27:28.485Z,1017.54
2023-06-17T05:28:00.615Z,1017.61
2023-06-17T05:28:32.375Z,1017.61
2023-06-17T05:29:04.465Z,1017.61
2023-06-17T05:29:39.920Z,1017.61
2023-06-17T05:30:10.791Z,1017.61
2023-06-17T05:30:37.585Z,1017.71
2023-06-17T05:30:57.596Z,1017.71
2023-06-17T05:31:39.165Z,1017.71
2023-06-17T05:32:00.474Z,1017.61
2023-06-17T05:32:32.283Z,1017.61
2023-06-17T05:33:04.455Z,1017.71
2023-06-17T05:33:36.933Z,1017.71
2023-06-17T05:34:10.377Z,1017.61
2023-06-17T05:34:36.713Z,1017.71
2023-06-17T05:34:56.862Z,1017.71
2023-06-17T05:35:29.043Z,1017.71
2023-06-17T05:36:00.453Z,1017.81
2023-06-17T05:36:32.424Z,1017.81
2023-06-17T05:37:04.309Z,1017.61
2023-06-17T05:37:37.210Z,1017.61
2023-06-17T05:38:08.411Z,1017.71
2023-06-17T05:38:37.346Z,1017.61
2023-06-17T05:38:56.831Z,1017.61
2023-06-17T05:39:28.194Z,1017.61
2023-06-17T05:40:00.876Z,1017.54
2023-06-17T05:40:32.546Z,1017.54
2023-06-17T05:41:04.433Z,1017.71
2023-06-17T05:41:36.891Z,1017.71
2023-06-17T05:42:08.475Z,1017.71
2023-06-17T05:42:36.818Z,1017.71
2023-06-17T05:42:56.710Z,1017.71
2023-06-17T05:43:28.288Z,1017.71
2023-06-17T05:44:00.435Z,1017.71
2023-06-17T05:44:32.258Z,1017.71
2023-06-17T05:45:07.066Z,1017.54
2023-06-17T05:45:36.817Z,1017.54
2023-06-17T05:46:08.545Z,1017.61
2023-06-17T05:46:36.839Z,1017.71
2023-06-17T05:46:56.969Z,1017.71
2023-06-17T05:47:28.295Z,1017.71
2023-06-17T05:48:00.626Z,1017.61
2023-06-17T05:48:32.306Z,1017.61
2023-06-17T05:49:04.189Z,1017.71
2023-06-17T05:49:36.643Z,1017.71
2023-06-17T05:50:10.037Z,1017.71
2023-06-17T05:50:37.126Z,1017.81
2023-06-17T05:50:57.241Z,1017.81
2023-06-17T05:51:28.469Z,1017.81
2023-06-17T05:52:00.828Z,1017.61
2023-06-17T05:52:32.430Z,1017.61
2023-06-17T05:53:04.771Z,1017.61
2023-06-17T05:53:36.754Z,1017.61
2023-06-17T05:54:08.477Z,1017.71
2023-06-17T05:54:36.748Z,1017.71
2023-06-17T05:54:56.833Z,1017.71
2023-06-17T05:55:29.052Z,1017.71
2023-06-17T05:56:00.400Z,1017.71
2023-06-17T05:56:32.366Z,1017.71
2023-06-17T05:57:04.486Z,1017.61
2023-06-17T05:57:36.748Z,1017.61
2023-06-17T05:58:08.486Z,1017.54
2023-06-17T05:58:36.776Z,1017.71
2023-06-17T05:58:56.775Z,1017.71
2023-06-17T05:59:28.460Z,1017.71
2023-06-17T06:00:01.846Z,1017.61
2023-06-17T06:00:32.871Z,1017.61
2023-06-17T06:01:05.788Z,1017.61
2023-06-17T06:01:36.783Z,1017.61
2023-06-17T06:02:08.711Z,1017.71
2023-06-17T06:02:36.820Z,1017.71
2023-06-17T06:02:57.334Z,1017.71